createdAt,value
2019-02-17T00:00:04.919Z,2.1
2019-02-17T00:05:12.538Z,2
2019-02-17T00:15:05.706Z,2.2
2019-02-17T00:20:02.770Z,2.2
2019-02-17T00:25:07.853Z,1.9
2019-02-17T00:30:05.405Z,1.8
2019-02-17T00:35:05.299Z,1.7
2019-02-17T00:40:02.689Z,1.7
2019-02-17T00:45:05.177Z,1.5
2019-02-17T00:50:15.802Z,1.6
2019-02-17T00:55:15.683Z,1.6
2019-02-17T01:00:12.790Z,1.6
2019-02-17T01:05:02.572Z,1.5
2019-02-17T01:15:08.009Z,1.5
2019-02-17T01:20:23.311Z,1.4
2019-02-17T01:25:03.015Z,1.4
2019-02-17T01:30:13.123Z,1.2
2019-02-17T01:35:08.058Z,1.2
2019-02-17T01:40:05.065Z,1.1
2019-02-17T01:45:10.105Z,1.1
2019-02-17T01:50:05.626Z,1
2019-02-17T01:55:10.735Z,1
2019-02-17T02:00:07.733Z,0.9
2019-02-17T02:05:05.254Z,0.8
2019-02-17T02:10:05.295Z,0.8
2019-02-17T02:15:10.347Z,0.8
2019-02-17T02:20:30.166Z,0.7
2019-02-17T02:25:03.235Z,0.7
2019-02-17T02:30:08.333Z,0.6
2019-02-17T02:35:03.224Z,0.6
2019-02-17T02:40:25.400Z,0.4
2019-02-17T02:45:04.903Z,0.4
2019-02-17T02:50:02.876Z,0.4
2019-02-17T02:55:10.620Z,0.4
2019-02-17T03:00:12.773Z,0.4
2019-02-17T03:05:10.240Z,0.4
2019-02-17T03:10:02.715Z,0.3
2019-02-17T03:15:05.282Z,0.3
2019-02-17T03:20:25.118Z,0.2
2019-02-17T03:25:05.654Z,0.2
2019-02-17T03:30:07.794Z,0.2
2019-02-17T03:35:02.696Z,0.2
2019-02-17T03:40:10.829Z,0.3
2019-02-17T03:45:10.773Z,0.3
2019-02-17T03:50:10.406Z,0.2
2019-02-17T03:55:35.617Z,0.3
2019-02-17T04:00:20.417Z,0.3
2019-02-17T04:05:15.380Z,0.2
2019-02-17T04:10:25.620Z,0.1
2019-02-17T04:15:10.160Z,0
2019-02-17T04:20:15.928Z,-0.1
2019-02-17T04:25:10.760Z,-0.1
2019-02-17T04:30:02.726Z,-0.2
2019-02-17T04:35:10.254Z,-0.2
2019-02-17T04:40:22.987Z,-0.3
2019-02-17T04:45:07.802Z,-0.2
2019-02-17T04:50:05.402Z,-0.2
2019-02-17T04:55:05.364Z,-0.1
2019-02-17T05:00:04.877Z,-0.1
2019-02-17T05:05:22.529Z,-0.2
2019-02-17T05:10:03.030Z,-0.2
2019-02-17T05:15:05.611Z,-0.4
2019-02-17T05:20:05.213Z,-0.4
2019-02-17T05:25:05.326Z,-0.3
2019-02-17T05:30:07.395Z,-0.3
2019-02-17T05:35:04.918Z,-0.2
2019-02-17T05:40:10.193Z,-0.2
2019-02-17T05:45:17.724Z,-0.2
2019-02-17T05:50:05.196Z,-0.3
2019-02-17T05:55:15.320Z,-0.4
2019-02-17T06:05:02.387Z,-0.5
2019-02-17T06:10:23.177Z,-0.4
2019-02-17T06:15:05.541Z,-0.4
2019-02-17T06:20:02.656Z,-0.4
2019-02-17T06:25:07.753Z,-0.5
2019-02-17T06:30:07.835Z,-0.5
2019-02-17T06:35:12.917Z,-0.4
2019-02-17T06:45:14.992Z,-0.3
2019-02-17T06:50:03.113Z,-0.3
2019-02-17T06:55:08.154Z,-0.1
2019-02-17T07:00:15.789Z,0
2019-02-17T07:05:02.497Z,0
2019-02-17T07:10:23.470Z,0.2
2019-02-17T07:15:10.833Z,0.4
2019-02-17T07:20:05.477Z,0.5
2019-02-17T07:25:08.124Z,0.5
2019-02-17T07:30:05.798Z,0.6
2019-02-17T07:35:08.296Z,0.7
2019-02-17T07:40:17.892Z,0.9
2019-02-17T07:45:30.454Z,1
2019-02-17T07:50:35.281Z,1.3
2019-02-17T07:55:05.767Z,1.4
2019-02-17T08:00:12.832Z,1.6
2019-02-17T08:05:05.203Z,1.7
2019-02-17T08:10:10.274Z,1.9
2019-02-17T08:15:10.255Z,2.1
2019-02-17T08:20:08.417Z,2.3
2019-02-17T08:25:02.342Z,2.2
2019-02-17T08:30:02.374Z,2.4
2019-02-17T08:35:18.490Z,2.7
2019-02-17T08:40:10.548Z,2.9
2019-02-17T08:45:23.273Z,3.1
2019-02-17T08:50:08.375Z,3.2
2019-02-17T08:55:03.062Z,3.3
2019-02-17T09:00:08.166Z,3.6
2019-02-17T09:05:15.740Z,3.8
2019-02-17T09:10:15.813Z,4
2019-02-17T09:15:15.748Z,4.2
2019-02-17T09:20:02.845Z,4.2
2019-02-17T09:25:20.438Z,4.6
2019-02-17T09:30:02.488Z,4.6
2019-02-17T09:35:05.098Z,5
2019-02-17T09:40:07.745Z,5.1
2019-02-17T09:45:05.220Z,5.3
2019-02-17T09:50:03.213Z,5.3
2019-02-17T09:55:05.833Z,5.6
2019-02-17T10:00:02.895Z,5.6
2019-02-17T10:05:23.250Z,6
2019-02-17T10:15:20.317Z,6.5
2019-02-17T10:20:04.969Z,6.7
2019-02-17T10:25:05.073Z,7
2019-02-17T10:30:08.177Z,7.2
2019-02-17T10:35:08.300Z,7.4
2019-02-17T10:40:05.281Z,7.7
2019-02-17T10:50:12.929Z,8
2019-02-17T10:55:15.460Z,8.2
2019-02-17T11:00:17.607Z,8.5
2019-02-17T11:05:15.125Z,8.6
2019-02-17T11:10:05.229Z,8.9
2019-02-17T11:15:05.270Z,9.1
2019-02-17T11:20:12.547Z,9.3
2019-02-17T11:25:07.677Z,9.5
2019-02-17T11:30:05.622Z,9.6
2019-02-17T11:35:03.120Z,9.6
2019-02-17T11:45:07.607Z,10.1
2019-02-17T11:50:05.273Z,10.3
2019-02-17T11:55:05.393Z,10.5
2019-02-17T12:00:10.050Z,10.6
2019-02-17T12:05:22.868Z,10.8
2019-02-17T12:10:04.964Z,11
2019-02-17T12:15:32.797Z,11.2
2019-02-17T12:20:25.691Z,11.4
2019-02-17T12:25:02.711Z,11.4
2019-02-17T12:30:12.952Z,11.6
2019-02-17T12:35:18.100Z,11.9
2019-02-17T12:40:07.679Z,12.3
2019-02-17T12:45:15.408Z,12.8
2019-02-17T12:50:09.970Z,13
2019-02-17T12:55:05.469Z,13.5
2019-02-17T13:00:30.644Z,13.8
2019-02-17T13:05:12.868Z,13.9
2019-02-17T13:10:10.114Z,13.8
2019-02-17T13:15:02.469Z,13.8
2019-02-17T13:20:02.568Z,13.9
2019-02-17T13:25:07.697Z,14.9
2019-02-17T13:30:05.268Z,15.6
2019-02-17T13:35:02.828Z,15.6
2019-02-17T13:40:07.519Z,16.4
2019-02-17T13:45:22.795Z,16.3
2019-02-17T13:50:18.046Z,15.9
2019-02-17T13:55:03.078Z,15.9
2019-02-17T14:00:03.090Z,15.7
2019-02-17T14:05:05.836Z,15.5
2019-02-17T14:10:02.456Z,15.5
2019-02-17T14:15:10.111Z,16.1
2019-02-17T14:20:07.490Z,16
2019-02-17T14:25:02.373Z,16
2019-02-17T14:30:20.166Z,15.3
2019-02-17T14:35:02.599Z,15.3
2019-02-17T14:40:03.202Z,15.2
2019-02-17T14:45:18.398Z,14.8
2019-02-17T14:50:10.045Z,14.6
2019-02-17T14:55:22.842Z,14.7
2019-02-17T15:00:05.503Z,14.7
2019-02-17T15:05:05.509Z,14.7
2019-02-17T15:10:08.847Z,14.5
2019-02-17T15:15:05.687Z,14.4
2019-02-17T15:20:02.863Z,14.4
2019-02-17T15:25:18.314Z,14.2
2019-02-17T15:30:07.457Z,14.1
2019-02-17T15:35:02.560Z,14
2019-02-17T15:40:05.772Z,13.7
2019-02-17T15:45:22.604Z,13.3
2019-02-17T15:50:07.764Z,13.1
2019-02-17T15:55:13.016Z,12.8
2019-02-17T16:00:15.760Z,12.6
2019-02-17T16:05:30.143Z,12.3
2019-02-17T16:10:10.276Z,12.2
2019-02-17T16:15:07.915Z,12
2019-02-17T16:20:23.368Z,11.8
2019-02-17T16:25:05.717Z,11.6
2019-02-17T16:30:17.926Z,11.4
2019-02-17T16:35:05.310Z,11.3
2019-02-17T16:40:05.446Z,11.1
2019-02-17T16:45:23.240Z,10.9
2019-02-17T16:50:08.424Z,10.7
2019-02-17T16:55:04.903Z,10.5
2019-02-17T17:00:08.143Z,10.3
2019-02-17T17:05:05.619Z,10.2
2019-02-17T17:10:03.169Z,10.2
2019-02-17T17:15:10.831Z,10
2019-02-17T17:20:18.125Z,9.9
2019-02-17T17:25:10.522Z,9.8
2019-02-17T17:30:20.279Z,9.6
2019-02-17T17:35:10.154Z,9.5
2019-02-17T17:40:27.923Z,9.3
2019-02-17T17:45:02.941Z,9.3
2019-02-17T17:50:05.568Z,9
2019-02-17T17:55:20.786Z,8.7
2019-02-17T18:00:02.819Z,8.7
2019-02-17T18:05:23.163Z,8.3
2019-02-17T18:10:38.081Z,8.2
2019-02-17T18:20:15.919Z,8
2019-02-17T18:25:18.443Z,7.8
2019-02-17T18:30:07.584Z,7.6
2019-02-17T18:35:02.575Z,7.6
2019-02-17T18:40:23.334Z,7.3
2019-02-17T18:45:08.194Z,7.4
2019-02-17T18:50:15.885Z,7.4
2019-02-17T18:55:05.833Z,7.3
2019-02-17T19:00:05.383Z,7.1
2019-02-17T19:05:07.990Z,7
2019-02-17T19:10:12.649Z,6.8
2019-02-17T19:15:04.985Z,6.7
2019-02-17T19:20:10.688Z,6.6
2019-02-17T19:25:05.693Z,6.5
2019-02-17T19:30:02.677Z,6.5
2019-02-17T19:35:30.456Z,6.3
2019-02-17T19:40:08.039Z,6.2
2019-02-17T19:45:13.164Z,6.1
2019-02-17T19:50:03.207Z,6.1
2019-02-17T19:55:03.274Z,6
2019-02-17T20:00:03.356Z,5.9
2019-02-17T20:05:05.816Z,5.8
2019-02-17T20:10:15.069Z,5.6
2019-02-17T20:15:09.923Z,5.6
2019-02-17T20:20:18.138Z,5.5
2019-02-17T20:25:08.025Z,5.4
2019-02-17T20:30:10.642Z,5.3
2019-02-17T20:35:08.146Z,5.3
2019-02-17T20:40:17.923Z,5.3
2019-02-17T20:45:10.376Z,5.4
2019-02-17T20:50:10.181Z,5.4
2019-02-17T20:55:27.737Z,5.4
2019-02-17T21:00:05.316Z,5.3
2019-02-17T21:05:07.882Z,5.2
2019-02-17T21:10:04.974Z,5.1
2019-02-17T21:15:05.031Z,5.1
2019-02-17T21:20:23.337Z,5.1
2019-02-17T21:25:20.916Z,5.1
2019-02-17T21:30:15.662Z,5.1
2019-02-17T21:35:15.647Z,5.1
2019-02-17T21:40:15.869Z,5
2019-02-17T21:45:20.915Z,5
2019-02-17T21:50:03.635Z,5
2019-02-17T21:55:05.559Z,4.9
2019-02-17T22:00:05.085Z,4.8
2019-02-17T22:05:05.090Z,4.8
2019-02-17T22:10:02.609Z,4.8
2019-02-17T22:15:02.505Z,4.7
2019-02-17T22:20:10.221Z,4.5
2019-02-17T22:25:10.194Z,4.4
2019-02-17T22:30:05.795Z,4.3
2019-02-17T22:35:03.275Z,4.3
2019-02-17T22:40:07.773Z,4.1
2019-02-17T22:45:05.254Z,3.9
2019-02-17T22:50:10.174Z,3.8
2019-02-17T22:55:12.786Z,3.9
2019-02-17T23:00:15.470Z,3.8
2019-02-17T23:05:07.883Z,3.8
2019-02-17T23:10:07.496Z,3.8
2019-02-17T23:15:02.534Z,3.8
2019-02-17T23:20:07.655Z,3.8
2019-02-17T23:25:12.812Z,3.8
2019-02-17T23:30:18.020Z,3.8
2019-02-17T23:35:02.765Z,3.8
2019-02-17T23:40:03.115Z,3.8
2019-02-17T23:45:10.759Z,3.8
2019-02-17T23:50:05.293Z,3.7
2019-02-17T23:55:07.829Z,3.5
